Time;durP1;ratioP1;P1;durP2;ratioP2;P2;SDS_P1;SDS_P2;PMS_P1;PMS_P2;Temp;Humidity;BMP_temperature;BMP_pressure;BME280_temperature;BME280_humidity;BME280_pressure;Samples;Min_cycle;Max_cycle;Signal;HPM_P1;HPM_P2
2023/11/10 00:02:08;;;;;;;7.93;3.92;;;;;;;5.50;73.90;99769.72;6167310;23;20007;-93
2023/11/10 00:04:37;;;;;;;6.07;4.18;;;;;;;5.77;72.32;99794.22;6169375;23;20004;-92
2023/11/10 00:07:04;;;;;;;6.13;3.35;;;;;;;5.87;73.08;99775.78;6144122;23;20075;-93
2023/11/10 00:09:34;;;;;;;8.40;2.80;;;;;;;6.13;73.04;99784.47;6192591;23;20088;-92
2023/11/10 00:12:01;;;;;;;4.70;3.05;;;;;;;6.44;74.17;99793.25;6168842;23;20001;-92
2023/11/10 00:14:57;;;;;;;6.60;2.92;;;;;;;6.48;73.93;99759.66;6143448;23;20015;-92
2023/11/10 00:17:24;;;;;;;4.78;3.20;;;;;;;6.60;73.64;99754.28;6084749;23;20006;-92
2023/11/10 00:19:57;;;;;;;3.45;3.00;;;;;;;6.87;73.39;99773.38;6103073;23;20025;-93
2023/11/10 00:22:24;;;;;;;7.10;3.20;;;;;;;6.97;73.07;99762.88;6129128;23;20001;-93
2023/11/10 00:24:50;;;;;;;5.15;3.40;;;;;;;7.15;72.67;99772.63;6079864;23;20002;-93
2023/11/10 00:27:16;;;;;;;3.72;2.92;;;;;;;7.40;72.25;99791.06;6081093;23;20013;-94
2023/11/10 00:29:45;;;;;;;4.25;2.92;;;;;;;7.49;71.75;99773.59;6055904;23;20033;-92
2023/11/10 00:32:14;;;;;;;4.63;3.28;;;;;;;7.61;71.40;99786.94;6080232;23;20002;-92
2023/11/10 00:34:40;;;;;;;6.43;3.35;;;;;;;7.45;71.76;99752.84;6081488;23;20006;-90
2023/11/10 00:37:06;;;;;;;5.07;3.40;;;;;;;7.66;71.50;99773.66;6081153;23;20006;-92
2023/11/10 00:39:41;;;;;;;4.40;3.30;;;;;;;7.68;71.44;99757.34;6080267;23;19998;-92
2023/11/10 00:42:08;;;;;;;5.43;4.00;;;;;;;7.70;71.36;99749.88;6080526;23;20005;-93
2023/11/10 00:44:35;;;;;;;6.93;3.80;;;;;;;7.93;71.04;99770.38;6104968;23;20002;-92
2023/11/10 00:47:01;;;;;;;5.47;3.30;;;;;;;8.00;71.07;99778.28;6080454;23;20006;-93
2023/11/10 00:49:27;;;;;;;5.07;3.42;;;;;;;7.92;71.31;99746.47;6190724;23;20064;-93
2023/11/10 00:51:53;;;;;;;5.80;3.67;;;;;;;7.90;70.54;99744.84;6144137;23;20001;-93
2023/11/10 00:54:24;;;;;;;4.82;3.63;;;;;;;8.03;70.97;99754.47;6168901;23;20099;-90
2023/11/10 00:56:50;;;;;;;5.97;3.80;;;;;;;8.13;70.79;99759.19;6193184;23;20000;-90
2023/11/10 00:59:25;;;;;;;4.88;3.53;;;;;;;8.22;70.57;99764.97;6144315;23;20001;-92
2023/11/10 01:01:51;;;;;;;4.75;3.65;;;;;;;8.12;70.72;99746.03;6147378;23;19996;-91
2023/11/10 01:04:16;;;;;;;5.90;3.58;;;;;;;8.19;70.62;99755.53;6143921;23;20352;-92
2023/11/10 01:06:42;;;;;;;7.85;4.03;;;;;;;8.18;70.61;99740.50;6144222;23;20007;-91
2023/11/10 01:09:08;;;;;;;5.45;3.50;;;;;;;8.23;70.15;99742.44;6169004;23;20343;-91
2023/11/10 01:11:34;;;;;;;7.88;3.75;;;;;;;8.17;70.17;99744.22;6168134;23;20463;-92
2023/11/10 01:14:02;;;;;;;4.70;3.78;;;;;;;8.19;70.91;99735.94;6169208;23;20420;-91
2023/11/10 01:16:34;;;;;;;4.85;3.75;;;;;;;8.23;70.49;99734.41;6170297;23;20407;-92
2023/11/10 01:19:00;;;;;;;4.50;3.63;;;;;;;8.36;70.73;99746.66;6169659;23;20005;-92
2023/11/10 01:21:27;;;;;;;4.65;3.83;;;;;;;8.27;70.59;99724.81;6144549;23;20027;-93
2023/11/10 01:23:53;;;;;;;5.70;3.78;;;;;;;8.39;70.46;99738.16;6169347;23;20004;-92
2023/11/10 01:26:19;;;;;;;5.22;3.72;;;;;;;8.43;70.22;99728.56;6143809;23;20013;-92
2023/11/10 01:28:44;;;;;;;6.88;4.00;;;;;;;8.39;70.63;99725.53;6145513;23;20379;-92
2023/11/10 01:31:10;;;;;;;5.70;3.75;;;;;;;8.38;70.18;99726.56;6143880;23;20092;-92
2023/11/10 01:33:38;;;;;;;5.45;4.00;;;;;;;8.31;70.71;99709.84;6168593;23;20004;-92
2023/11/10 01:36:05;;;;;;;6.28;4.40;;;;;;;8.20;70.40;99691.97;6144203;23;20015;-92
2023/11/10 01:38:35;;;;;;;5.47;4.00;;;;;;;8.18;70.74;99681.50;6144384;23;20000;-92
2023/11/10 01:41:02;;;;;;;4.90;3.55;;;;;;;8.35;70.61;99704.81;6168151;23;20000;-91
2023/11/10 01:43:29;;;;;;;4.95;4.03;;;;;;;8.25;70.72;99681.31;6169462;23;19989;-91
2023/11/10 01:45:55;;;;;;;5.07;3.92;;;;;;;8.30;70.64;99698.31;6144987;23;20024;-91
2023/11/10 01:48:22;;;;;;;5.45;3.90;;;;;;;8.32;70.60;99692.69;6144842;23;19985;-91
2023/11/10 01:50:48;;;;;;;6.13;3.72;;;;;;;8.37;71.04;99705.38;6192687;23;20009;-92
2023/11/10 01:53:15;;;;;;;3.97;3.58;;;;;;;8.21;71.00;99666.78;6168694;23;20510;-92
2023/11/10 01:55:44;;;;;;;5.38;4.07;;;;;;;8.30;70.92;99679.53;6168849;23;20435;-91
2023/11/10 01:58:13;;;;;;;4.70;3.60;;;;;;;8.27;71.03;99671.16;6144327;23;20005;-92
2023/11/10 02:00:42;;;;;;;5.38;4.25;;;;;;;8.26;71.03;99675.72;6145034;23;20032;-91
2023/11/10 02:03:07;;;;;;;6.03;3.72;;;;;;;8.28;71.11;99670.91;6143388;23;20031;-91
2023/11/10 02:05:37;;;;;;;4.88;3.83;;;;;;;8.42;70.57;99690.19;6169860;23;20004;-91
2023/11/10 02:08:04;;;;;;;6.28;3.85;;;;;;;8.39;70.69;99687.16;6168157;23;20423;-91
2023/11/10 02:10:34;;;;;;;6.30;4.57;;;;;;;8.47;70.50;99705.56;6144141;23;20091;-91
2023/11/10 02:13:01;;;;;;;7.43;4.38;;;;;;;8.27;70.91;99673.84;6194193;23;20012;-92
2023/11/10 02:15:30;;;;;;;7.72;4.53;;;;;;;8.31;70.64;99680.34;6168093;23;20037;-91
2023/11/10 02:18:03;;;;;;;5.60;4.13;;;;;;;8.26;71.12;99678.41;6193950;23;20011;-92
2023/11/10 02:20:28;;;;;;;;;;;;;;;8.45;70.94;99707.69;6193270;23;20020;-91
2023/11/10 02:22:55;;;;;;;6.97;4.35;;;;;;;8.38;70.91;99709.66;6167813;23;19903;-91
2023/11/10 02:25:21;;;;;;;6.72;4.25;;;;;;;8.26;71.21;99681.06;6167404;23;20004;-91
2023/11/10 02:27:47;;;;;;;5.40;4.28;;;;;;;8.32;70.53;99692.69;6193764;23;20037;-90
2023/11/10 02:30:14;;;;;;;7.22;4.93;;;;;;;8.32;71.23;99684.63;6168582;23;19993;-92
2023/11/10 02:32:42;;;;;;;6.13;4.28;;;;;;;8.23;71.26;99675.38;6143302;23;20011;-91
2023/11/10 02:35:08;;;;;;;6.82;4.90;;;;;;;8.20;71.17;99671.31;6169107;23;19997;-91
2023/11/10 02:37:34;;;;;;;6.13;4.28;;;;;;;8.17;71.39;99658.41;6168934;23;20077;-92
2023/11/10 02:40:00;;;;;;;8.85;4.72;;;;;;;8.37;71.04;99691.97;6144598;23;20000;-91
2023/11/10 02:42:26;;;;;;;5.97;4.65;;;;;;;8.22;71.47;99663.84;6167438;23;20023;-92
2023/11/10 02:44:53;;;;;;;6.88;5.05;;;;;;;8.18;70.96;99660.03;6193291;23;20001;-92
2023/11/10 02:47:19;;;;;;;7.90;4.38;;;;;;;8.24;71.61;99674.34;6218536;23;20008;-92
2023/11/10 02:49:46;;;;;;;6.03;4.50;;;;;;;8.15;71.57;99668.56;6168662;23;20023;-92
2023/11/10 02:52:11;;;;;;;9.77;5.20;;;;;;;8.19;71.31;99671.56;6167645;23;20019;-91
2023/11/10 02:54:38;;;;;;;6.90;4.70;;;;;;;8.16;71.65;99669.38;6168571;23;20004;-92
2023/11/10 02:57:04;;;;;;;6.45;4.78;;;;;;;8.23;72.10;99678.88;6168443;23;20000;-91
2023/11/10 02:59:41;;;;;;;7.40;4.75;;;;;;;8.07;71.95;99650.19;6169271;23;20007;-91
2023/11/10 03:02:08;;;;;;;5.82;4.70;;;;;;;8.14;72.03;99664.25;6192701;23;20023;-91
2023/11/10 03:04:39;;;;;;;7.57;4.60;;;;;;;8.23;72.14;99676.19;6143600;23;20085;-91
2023/11/10 03:07:10;;;;;;;5.28;4.30;;;;;;;8.24;72.23;99677.03;6194226;23;20001;-91
2023/11/10 03:09:40;;;;;;;7.10;4.60;;;;;;;8.14;72.16;99661.56;6144435;23;20001;-91
2023/11/10 03:12:09;;;;;;;7.65;4.57;;;;;;;8.20;72.26;99676.69;6168489;23;20019;-91
2023/11/10 03:14:35;;;;;;;5.20;4.45;;;;;;;8.21;72.34;99680.97;6193605;23;20008;-91
2023/11/10 03:17:01;;;;;;;7.65;5.00;;;;;;;8.13;72.56;99659.94;6142852;23;20007;-91
2023/11/10 03:19:27;;;;;;;5.82;4.80;;;;;;;8.26;72.21;99691.00;6168233;23;20024;-91
2023/11/10 03:21:53;;;;;;;8.32;4.82;;;;;;;8.17;72.42;99671.00;6168754;23;20009;-92
2023/11/10 03:24:19;;;;;;;6.85;4.70;;;;;;;8.25;72.44;99694.72;6165181;23;20080;-92
2023/11/10 03:26:46;;;;;;;5.63;4.53;;;;;;;8.31;72.25;99701.78;6191545;23;20415;-92
2023/11/10 03:29:13;;;;;;;7.00;4.95;;;;;;;8.32;72.77;99697.25;6167681;23;20001;-92
2023/11/10 03:31:41;;;;;;;5.50;4.50;;;;;;;8.06;72.42;99657.44;6166591;23;20088;-92
2023/11/10 03:34:08;;;;;;;7.22;5.10;;;;;;;8.19;72.37;99679.63;6167756;23;20005;-92
2023/11/10 03:36:35;;;;;;;8.82;4.93;;;;;;;8.18;72.65;99680.69;6166787;23;20097;-92
2023/11/10 03:39:01;;;;;;;7.20;4.80;;;;;;;8.24;72.50;99685.06;6167977;23;20350;-92
2023/11/10 03:41:34;;;;;;;6.00;4.82;;;;;;;8.16;72.24;99672.88;6145830;23;20028;-92
2023/11/10 03:43:59;;;;;;;6.30;4.97;;;;;;;8.07;72.44;99651.03;6167805;23;20031;-92
2023/11/10 03:46:25;;;;;;;7.53;4.97;;;;;;;8.08;72.52;99646.47;6166857;23;20004;-91
2023/11/10 03:48:51;;;;;;;6.85;4.80;;;;;;;8.21;72.33;99659.53;6142593;23;20007;-92
2023/11/10 03:51:16;;;;;;;9.23;5.68;;;;;;;8.15;72.55;99654.34;6142190;23;20011;-92
2023/11/10 03:53:42;;;;;;;5.18;4.53;;;;;;;8.26;72.23;99673.03;6168784;23;20008;-92
2023/11/10 03:56:09;;;;;;;7.40;5.20;;;;;;;8.14;72.16;99647.38;6147157;23;20001;-92
2023/11/10 03:58:36;;;;;;;8.45;5.20;;;;;;;8.26;72.23;99667.66;6170292;23;20424;-92
2023/11/10 04:01:10;;;;;;;7.85;4.65;;;;;;;8.34;71.96;99684.38;6145433;23;20023;-92
2023/11/10 04:03:40;;;;;;;8.10;5.47;;;;;;;8.34;72.39;99679.03;6172045;23;20028;-92
2023/11/10 04:06:07;;;;;;;6.93;5.25;;;;;;;8.28;72.12;99660.19;6171080;23;20420;-93
2023/11/10 04:08:32;;;;;;;9.77;5.50;;;;;;;8.28;72.19;99657.50;6193094;23;20024;-90
2023/11/10 04:10:59;;;;;;;7.55;5.22;;;;;;;8.39;71.84;99663.00;6169149;23;20019;-92
2023/11/10 04:13:26;;;;;;;8.68;5.85;;;;;;;8.33;72.07;99645.22;6170151;23;20502;-91
2023/11/10 04:15:56;;;;;;;7.85;5.47;;;;;;;8.46;71.99;99656.41;6169888;23;20062;-93
2023/11/10 04:18:26;;;;;;;8.05;5.80;;;;;;;8.43;71.41;99645.41;6219613;23;20000;-92
2023/11/10 04:20:52;;;;;;;9.38;5.60;;;;;;;8.43;71.64;99640.03;6146080;23;20016;-91
2023/11/10 04:23:37;;;;;;;8.98;6.18;;;;;;;8.34;71.66;99628.03;6177650;23;20001;-96
2023/11/10 04:26:13;;;;;;;7.93;6.00;;;;;;;8.36;71.48;99633.97;6192233;23;20004;-96
2023/11/10 04:28:50;;;;;;;12.10;6.68;;;;;;;8.32;71.13;99624.81;6242067;23;19981;-96
2023/11/10 04:31:22;;;;;;;8.45;6.07;;;;;;;8.46;71.40;99643.00;6222117;23;20035;-94
2023/11/10 04:34:03;;;;;;;8.40;5.60;;;;;;;8.41;71.61;99628.72;6194973;23;19989;-96
2023/11/10 04:36:48;;;;;;;8.50;6.25;;;;;;;8.60;71.54;99653.41;6173324;23;20052;-96
2023/11/10 04:39:17;;;;;;;9.38;6.10;;;;;;;8.48;71.88;99629.34;6217450;23;19984;-95
2023/11/10 04:41:50;;;;;;;9.32;6.32;;;;;;;8.71;71.33;99657.81;6217769;23;19991;-96
2023/11/10 04:44:26;;;;;;;10.13;7.07;;;;;;;8.61;71.41;99645.09;6166653;23;20087;-95
2023/11/10 04:46:51;;;;;;;10.52;6.40;;;;;;;8.83;70.99;99661.19;6160957;23;19988;-96
2023/11/10 04:49:23;;;;;;;9.40;6.32;;;;;;;8.79;70.71;99653.91;6178258;23;19996;-96
2023/11/10 04:51:52;;;;;;;11.77;7.75;;;;;;;8.62;70.72;99633.28;6198446;23;19997;-95
2023/11/10 04:54:19;;;;;;;10.73;8.05;;;;;;;8.72;70.29;99629.94;6150577;23;20043;-96
2023/11/10 04:56:45;;;;;;;9.45;6.10;;;;;;;8.93;70.80;99662.41;6176561;23;19996;-96
2023/11/10 04:59:23;;;;;;;8.65;6.22;;;;;;;8.64;70.77;99620.44;6177025;23;20001;-96
2023/11/10 05:01:49;;;;;;;7.30;5.50;;;;;;;8.97;70.63;99653.59;6212590;23;20001;-96
2023/11/10 05:04:14;;;;;;;7.85;6.00;;;;;;;8.90;70.48;99634.16;6187154;23;20060;-95
2023/11/10 05:06:41;;;;;;;8.68;5.28;;;;;;;8.80;70.47;99617.94;6182009;23;20016;-95
2023/11/10 05:09:19;;;;;;;6.75;5.28;;;;;;;8.77;69.61;99619.25;6188636;23;20009;-94
2023/11/10 05:11:59;;;;;;;8.20;5.28;;;;;;;8.85;69.66;99618.00;6168340;23;19992;-95
2023/11/10 05:14:27;;;;;;;6.82;5.00;;;;;;;8.93;69.72;99632.88;6165689;23;20004;-95
2023/11/10 05:17:31;;;;;;;8.70;4.97;;;;;;;8.90;69.32;99618.03;6167519;23;19984;-96
2023/11/10 05:20:02;;;;;;;7.07;5.43;;;;;;;8.94;69.08;99619.16;6215861;23;20019;-95
2023/11/10 05:22:47;;;;;;;;;;;;;;;;;;;;;
2023/11/10 05:25:43;;;;;;;7.30;5.30;;;;;;;8.96;69.32;99605.50;6219165;23;19985;-96
2023/11/10 05:28:25;;;;;;;5.60;4.80;;;;;;;9.02;68.43;99610.66;6204309;23;19992;-95
2023/11/10 05:31:01;;;;;;;5.47;4.22;;;;;;;9.23;68.86;99635.88;6171739;23;19992;-92
2023/11/10 05:33:37;;;;;;;5.20;4.40;;;;;;;9.27;68.52;99636.19;6217793;23;20004;-93
2023/11/10 05:36:06;;;;;;;5.22;4.32;;;;;;;9.17;67.50;99607.34;6217899;23;19985;-94
2023/11/10 05:39:13;;;;;;;8.63;5.63;;;;;;;9.29;67.33;99626.00;6167841;23;19984;-96
2023/11/10 05:44:29;;;;;;;8.20;4.97;;;;;;;9.45;67.12;99632.34;6166727;23;20033;-95
2023/11/10 05:46:59;;;;;;;12.90;5.35;;;;;;;9.66;66.43;99644.88;6086537;23;20447;-92
2023/11/10 05:49:28;;;;;;;8.80;6.13;;;;;;;9.66;66.01;99627.94;6134871;23;19998;-92
2023/11/10 05:51:54;;;;;;;7.55;4.85;;;;;;;9.75;65.79;99625.59;6086333;23;20059;-93
2023/11/10 05:54:22;;;;;;;7.65;5.80;;;;;;;10.06;65.54;99654.34;6085777;23;20092;-92
2023/11/10 05:56:48;;;;;;;7.80;5.28;;;;;;;10.07;65.27;99649.78;6111561;23;20331;-94
2023/11/10 05:59:16;;;;;;;6.07;4.80;;;;;;;10.05;64.57;99628.50;6087501;23;20032;-93
2023/11/10 06:01:50;;;;;;;11.52;4.72;;;;;;;10.25;64.42;99656.63;6110437;23;19993;-94
2023/11/10 06:04:15;;;;;;;6.60;4.78;;;;;;;10.33;64.17;99653.47;6112443;23;20085;-92
2023/11/10 06:06:43;;;;;;;7.82;4.55;;;;;;;10.40;63.75;99659.47;6087772;23;20005;-93
2023/11/10 06:09:14;;;;;;;6.50;4.20;;;;;;;10.44;63.28;99647.09;6086477;23;19989;-92
2023/11/10 06:11:42;;;;;;;4.45;3.67;;;;;;;10.62;62.83;99666.56;6109833;23;20450;-92
2023/11/10 06:14:10;;;;;;;9.77;5.07;;;;;;;10.50;62.84;99656.03;6109316;23;20052;-92
2023/11/10 06:16:38;;;;;;;9.85;4.43;;;;;;;10.50;62.49;99656.03;6086749;23;20006;-92
2023/11/10 06:19:12;;;;;;;5.68;3.80;;;;;;;10.60;62.04;99656.03;6110510;23;20003;-94
2023/11/10 06:21:46;;;;;;;7.07;5.18;;;;;;;10.47;62.11;99640.38;6110944;23;20001;-92
2023/11/10 06:24:12;;;;;;;4.65;3.55;;;;;;;10.59;62.34;99659.03;6088442;23;20017;-92
2023/11/10 06:26:38;;;;;;;5.43;3.70;;;;;;;10.56;61.59;99654.94;6083433;23;20011;-92
2023/11/10 06:29:13;;;;;;;10.38;6.68;;;;;;;10.76;60.98;99669.59;6087913;23;20012;-92
2023/11/10 06:31:40;;;;;;;5.03;3.33;;;;;;;10.98;60.45;99689.09;6093358;23;19989;-94
2023/11/10 06:34:15;;;;;;;9.23;3.50;;;;;;;10.94;60.27;99658.38;6088808;23;20456;-94
2023/11/10 06:36:46;;;;;;;8.43;4.20;;;;;;;10.95;60.16;99670.75;6116302;23;20005;-92
2023/11/10 06:39:12;;;;;;;22.63;13.27;;;;;;;11.22;59.68;99670.56;6113777;23;19998;-93
2023/11/10 06:41:46;;;;;;;18.75;11.50;;;;;;;11.37;58.09;99661.75;6087801;23;20225;-94
2023/11/10 06:44:19;;;;;;;12.43;4.97;;;;;;;11.39;58.41;99645.28;6111369;23;20457;-93
2023/11/10 06:47:12;;;;;;;;;;;;;;;;;;;;;
2023/11/10 06:49:46;;;;;;;4.68;3.40;;;;;;;11.55;57.74;99651.50;6140580;23;20040;-91
2023/11/10 06:52:16;;;;;;;16.23;10.60;;;;;;;11.72;57.70;99639.41;6113197;23;20040;-96
2023/11/10 06:54:57;;;;;;;;;;;;;;;;;;;;;
2023/11/10 06:57:26;;;;;;;6.65;3.17;;;;;;;11.75;57.38;99629.97;6139196;23;20028;-93
2023/11/10 07:00:05;;;;;;;6.75;3.38;;;;;;;11.66;57.57;99613.50;6136056;23;20005;-95
2023/11/10 07:02:31;;;;;;;5.57;2.83;;;;;;;11.77;56.70;99632.41;6135282;23;20065;-94
2023/11/10 07:05:09;;;;;;;5.32;2.78;;;;;;;11.62;56.33;99608.91;6144959;23;20451;-91
2023/11/10 07:07:38;;;;;;;10.23;2.80;;;;;;;11.77;56.99;99643.97;6168112;23;20025;-95
2023/11/10 07:10:04;;;;;;;4.70;3.08;;;;;;;11.52;57.44;99615.91;6116708;23;20010;-94
2023/11/10 07:12:33;;;;;;;4.43;3.08;;;;;;;11.58;56.61;99605.13;6110300;23;20352;-90
2023/11/10 07:14:58;;;;;;;3.35;2.70;;;;;;;11.65;56.71;99617.25;6113100;23;20001;-93
2023/11/10 07:17:27;;;;;;;3.55;2.70;;;;;;;11.79;56.84;99619.44;6136270;23;20033;-96
2023/11/10 07:20:12;;;;;;;3.67;2.40;;;;;;;11.64;56.32;99607.56;6109628;23;20429;-95
2023/11/10 07:22:40;;;;;;;5.30;3.22;;;;;;;11.65;56.69;99606.47;6116489;23;20005;-94
2023/11/10 07:25:11;;;;;;;4.65;3.05;;;;;;;11.67;56.37;99598.13;6111761;23;20364;-92
2023/11/10 07:27:47;;;;;;;17.60;3.05;;;;;;;11.88;55.70;99631.28;6138047;23;20001;-94
2023/11/10 07:30:18;;;;;;;4.65;2.78;;;;;;;11.73;56.19;99591.66;6140503;23;20009;-92
2023/11/10 07:32:44;;;;;;;4.47;2.63;;;;;;;11.74;56.27;99587.84;6115142;23;20063;-93
2023/11/10 07:35:13;;;;;;;3.05;2.22;;;;;;;11.82;56.20;99584.63;6111521;23;20076;-93
2023/11/10 07:37:45;;;;;;;6.22;2.58;;;;;;;11.82;56.02;99584.63;6114900;23;20013;-93
2023/11/10 07:40:23;;;;;;;4.45;2.38;;;;;;;11.90;56.17;99602.19;6119101;23;20008;-94
2023/11/10 07:43:05;;;;;;;2.83;2.30;;;;;;;11.88;56.11;99585.44;6122467;23;20005;-96
2023/11/10 07:45:33;;;;;;;5.38;2.83;;;;;;;11.90;55.87;99584.09;6142230;23;20026;-93
2023/11/10 07:48:04;;;;;;;3.83;2.67;;;;;;;11.86;55.99;99579.50;6113509;23;20104;-94
2023/11/10 07:50:30;;;;;;;5.60;2.97;;;;;;;12.09;55.75;99595.13;6138836;23;20001;-94
2023/11/10 07:53:06;;;;;;;4.60;2.63;;;;;;;12.08;55.68;99593.53;6143852;23;20417;-93
2023/11/10 07:55:40;;;;;;;5.18;2.67;;;;;;;11.99;55.84;99561.97;6139533;23;20452;-94
2023/11/10 08:05:53;;;;;;;5.30;3.50;;;;;;;12.18;54.83;99564.88;6159927;22;20020;-96
2023/11/10 08:12:37;;;;;;;5.65;2.42;;;;;;;12.47;53.38;99573.16;6186747;23;20467;-92
2023/11/10 08:15:04;;;;;;;3.80;2.38;;;;;;;12.55;52.21;99567.19;6108404;23;20013;-92
2023/11/10 08:17:47;;;;;;;3.58;2.25;;;;;;;12.81;51.78;99591.41;6163479;23;20083;-94
2023/11/10 08:20:20;;;;;;;3.78;2.00;;;;;;;12.89;51.25;99590.81;6144710;23;20016;-94
2023/11/10 08:22:49;;;;;;;5.22;2.38;;;;;;;12.81;52.55;99567.09;6146714;23;20001;-96
2023/11/10 08:25:24;;;;;;;3.90;2.17;;;;;;;13.01;51.04;99588.59;6147620;23;20066;-92
2023/11/10 08:28:02;;;;;;;4.60;2.20;;;;;;;12.88;50.69;99559.47;6174154;23;20039;-96
2023/11/10 08:30:33;;;;;;;4.53;2.00;;;;;;;13.00;50.90;99581.56;6150531;23;20009;-95
2023/11/10 08:33:26;;;;;;;2.75;1.70;;;;;;;12.88;50.57;99559.47;6083374;23;20006;-93
2023/11/10 08:36:01;;;;;;;3.28;2.10;;;;;;;12.89;50.82;99561.91;6056226;23;20003;-95
2023/11/10 08:38:41;;;;;;;3.55;2.40;;;;;;;13.01;50.93;99569.69;6027121;23;20003;-95
2023/11/10 08:41:11;;;;;;;2.95;2.15;;;;;;;13.00;50.31;99540.22;6050865;23;19998;-94
2023/11/10 08:43:36;;;;;;;3.13;1.90;;;;;;;13.11;50.91;99558.81;6025962;23;20002;-95
2023/11/10 08:46:08;;;;;;;3.17;1.80;;;;;;;12.79;50.70;99524.13;6025157;23;20030;-91
2023/11/10 08:48:39;;;;;;;5.95;2.17;;;;;;;12.92;50.59;99528.09;6047153;23;20067;-93
2023/11/10 08:51:18;;;;;;;;;;;;;;;;;;;;;
2023/11/10 08:53:54;;;;;;;2.90;2.05;;;;;;;13.12;50.97;99546.88;6029072;23;20046;-95
2023/11/10 08:56:23;;;;;;;7.70;3.08;;;;;;;13.27;50.55;99537.84;6027402;23;20003;-92
2023/11/10 08:58:51;;;;;;;6.10;2.25;;;;;;;13.28;50.38;99525.13;6025806;23;20007;-94
2023/11/10 09:04:57;;;;;;;70.43;51.53;;;;;;;13.80;50.60;99544.47;6215258;22;20069;-96
2023/11/10 09:07:28;;;;;;;4.97;2.90;;;;;;;13.92;49.27;99548.41;6210864;23;20016;-95
2023/11/10 09:09:54;;;;;;;3.00;1.95;;;;;;;13.88;49.04;99535.72;6202701;23;20004;-94
2023/11/10 09:12:25;;;;;;;4.45;2.03;;;;;;;13.84;48.79;99519.28;6199065;23;20027;-96
2023/11/10 09:14:51;;;;;;;3.10;1.88;;;;;;;13.66;48.48;99498.34;6175884;23;20000;-89
2023/11/10 09:17:16;;;;;;;8.07;3.25;;;;;;;13.84;49.35;99527.38;6171222;23;20003;-89
2023/11/10 09:19:42;;;;;;;6.70;2.17;;;;;;;13.97;48.50;99517.78;6222015;23;20000;-90
2023/11/10 09:22:10;;;;;;;3.63;1.88;;;;;;;14.26;48.00;99536.69;6222358;23;19996;-90
2023/11/10 09:24:49;;;;;;;4.90;3.80;;;;;;;14.24;48.56;99527.22;6175561;23;20023;-94
2023/11/10 09:27:41;;;;;;;2.33;1.70;;;;;;;14.27;46.89;99515.81;6189331;23;20036;-93
2023/11/10 09:30:16;;;;;;;3.05;1.80;;;;;;;14.27;47.84;99519.31;6212981;23;20032;-95
2023/11/10 09:33:08;;;;;;;6.47;1.73;;;;;;;14.35;46.98;99509.75;6233502;23;20004;-96
2023/11/10 09:35:52;;;;;;;3.42;1.83;;;;;;;14.63;46.42;99542.47;6143821;23;20074;-96
2023/11/10 09:38:28;;;;;;;3.25;2.38;;;;;;;14.41;47.41;99543.81;6117950;23;20536;-93
2023/11/10 09:41:23;;;;;;;6.95;3.42;;;;;;;14.49;47.16;99532.34;6117184;23;20404;-95
2023/11/10 09:43:51;;;;;;;8.48;4.57;;;;;;;14.46;47.06;99499.59;6136515;23;20063;-91
2023/11/10 09:46:24;;;;;;;6.07;2.33;;;;;;;14.38;47.70;99505.66;6111423;23;20014;-94
2023/11/10 09:51:31;;;;;;;1.95;1.58;;;;;;;14.32;48.30;99504.94;6231347;22;20047;-96
2023/11/10 09:54:15;;;;;;;3.22;1.92;;;;;;;14.31;48.46;99514.13;6160369;23;20061;-95
2023/11/10 09:57:07;;;;;;;6.22;2.22;;;;;;;14.39;48.62;99493.72;6161380;23;20004;-95
2023/11/10 09:59:48;;;;;;;7.63;2.40;;;;;;;14.34;48.60;99472.94;6089902;23;20005;-95
2023/11/10 10:02:17;;;;;;;3.88;2.60;;;;;;;14.35;47.96;99464.50;6090186;23;20002;-94
2023/11/10 10:04:46;;;;;;;4.82;2.63;;;;;;;14.40;47.69;99484.50;6084475;23;20029;-92
2023/11/10 10:07:23;;;;;;;3.40;2.20;;;;;;;14.68;47.36;99502.56;6081550;23;20002;-93
2023/11/10 10:10:15;;;;;;;2.47;1.70;;;;;;;14.51;47.90;99467.81;6089364;23;20077;-95
2023/11/10 10:12:53;;;;;;;9.25;2.50;;;;;;;14.73;47.57;99485.41;6120794;23;20469;-95
2023/11/10 10:15:47;;;;;;;2.97;2.17;;;;;;;14.77;47.89;99485.66;6087391;23;20009;-94
2023/11/10 10:19:08;;;;;;;15.82;9.55;;;;;;;14.57;47.07;99457.75;6097407;23;20042;-95
2023/11/10 10:22:21;;;;;;;3.00;2.08;;;;;;;14.73;46.77;99477.28;6113153;23;20002;-94
2023/11/10 10:25:30;;;;;;;;;;;;;;;;;;;;;
2023/11/10 10:28:09;;;;;;;;;;;;;;;;;;;;;
2023/11/10 10:30:56;;;;;;;3.88;1.85;;;;;;;14.61;46.49;99433.56;6143562;23;20181;-96
2023/11/10 10:33:32;;;;;;;2.13;1.50;;;;;;;14.64;46.65;99416.72;6149451;23;20109;-95
2023/11/10 10:36:37;;;;;;;2.78;1.67;;;;;;;14.64;46.60;99403.97;6142959;23;20005;-95
2023/11/10 10:39:10;;;;;;;3.75;2.05;;;;;;;14.53;46.64;99391.66;6145260;23;20071;-91
2023/11/10 10:45:24;;;;;;;2.80;1.92;;;;;;;14.51;47.11;99394.66;6065223;23;20006;-94
2023/11/10 10:47:50;;;;;;;6.32;1.88;;;;;;;14.58;46.03;99396.22;6139081;23;20001;-92
2023/11/10 10:50:37;;;;;;;;;;;;;;;;;;;;;
2023/11/10 10:53:05;;;;;;;6.30;2.00;;;;;;;14.63;45.50;99398.84;6144361;23;20405;-94
2023/11/10 10:55:43;;;;;;;3.53;1.50;;;;;;;14.85;45.18;99417.22;6145429;23;20000;-94
2023/11/10 10:58:21;;;;;;;;;;;;;;;;;;;;;
2023/11/10 11:01:02;;;;;;;;;;;;;;;;;;;;;
2023/11/10 11:03:37;;;;;;;3.83;1.50;;;;;;;15.03;44.11;99413.66;6179980;23;20384;-95
2023/11/10 11:06:09;;;;;;;5.10;4.18;;;;;;;14.96;44.24;99407.81;6197227;23;20005;-95
2023/11/10 11:09:16;;;;;;;3.28;2.05;;;;;;;14.91;44.17;99411.41;6195960;23;20036;-94
2023/11/10 11:12:10;;;;;;;2.22;1.65;;;;;;;14.71;44.24;99404.44;6194478;23;20012;-91
2023/11/10 11:14:55;;;;;;;7.97;2.72;;;;;;;14.73;44.66;99394.09;6194422;23;20012;-92
2023/11/10 11:17:58;;;;;;;4.38;2.15;;;;;;;14.86;44.46;99381.69;6222826;23;20048;-91
2023/11/10 11:21:03;;;;;;;41.30;23.88;;;;;;;14.88;44.63;99367.81;6197312;23;20000;-91
2023/11/10 11:23:51;;;;;;;10.77;5.97;;;;;;;14.89;44.11;99323.34;6199798;23;20016;-93
2023/11/10 11:26:17;;;;;;;82.20;56.67;;;;;;;14.82;43.60;99310.19;6167773;23;20348;-89
2023/11/10 11:28:42;;;;;;;5.22;2.50;;;;;;;15.10;43.20;99332.72;6165853;23;19993;-90
2023/11/10 11:31:09;;;;;;;2.10;1.70;;;;;;;15.12;43.73;99332.44;6165363;23;20001;-92
2023/11/10 11:33:42;;;;;;;4.50;2.40;;;;;;;15.27;43.64;99331.31;6163976;23;20331;-88
2023/11/10 11:36:10;;;;;;;3.20;2.00;;;;;;;15.18;43.27;99322.28;6193818;23;19996;-89
2023/11/10 11:38:44;;;;;;;5.05;1.88;;;;;;;15.30;42.89;99328.03;6167047;23;20008;-89
2023/11/10 11:41:13;;;;;;;2.70;2.00;;;;;;;15.19;43.24;99294.06;6166802;23;19997;-89
2023/11/10 11:43:59;;;;;;;2.60;1.90;;;;;;;15.28;43.47;99301.19;6166782;23;19996;-90
2023/11/10 11:46:42;;;;;;;3.05;1.60;;;;;;;15.37;43.06;99298.56;6219476;23;20027;-89
2023/11/10 11:49:08;;;;;;;2.47;1.77;;;;;;;15.24;43.23;99278.50;6165302;23;20000;-88
2023/11/10 11:51:37;;;;;;;7.65;2.50;;;;;;;15.30;44.50;99298.19;6164771;23;20036;-87
2023/11/10 11:54:03;;;;;;;3.25;2.17;;;;;;;15.06;44.83;99261.19;6166387;23;20000;-88
2023/11/10 11:56:29;;;;;;;5.05;2.28;;;;;;;15.02;44.53;99273.75;6189528;23;20000;-90
2023/11/10 11:58:59;;;;;;;5.18;2.85;;;;;;;14.98;45.05;99280.88;6165295;23;20351;-89
2023/11/10 12:01:43;;;;;;;3.88;2.38;;;;;;;14.90;46.00;99281.56;6166715;23;19997;-87
2023/11/10 12:04:09;;;;;;;5.22;3.25;;;;;;;14.86;46.06;99289.50;6164105;23;20050;-87
2023/11/10 12:06:35;;;;;;;3.95;2.50;;;;;;;14.93;45.66;99289.13;6164796;23;19996;-87
2023/11/10 12:09:06;;;;;;;4.55;2.00;;;;;;;14.93;45.84;99260.09;6138650;23;20075;-88
2023/11/10 12:11:36;;;;;;;6.40;2.50;;;;;;;15.21;44.79;99278.28;6165203;23;20444;-89
2023/11/10 12:14:05;;;;;;;4.82;2.47;;;;;;;15.03;44.63;99236.63;6187706;23;20016;-89
2023/11/10 12:16:41;;;;;;;5.30;2.15;;;;;;;15.19;44.53;99240.63;6139525;23;20424;-89
2023/11/10 12:19:08;;;;;;;4.53;2.08;;;;;;;15.28;44.61;99255.09;6165586;23;20003;-90
2023/11/10 12:21:34;;;;;;;3.95;2.00;;;;;;;15.10;45.07;99226.94;6187710;23;19996;-89
2023/11/10 12:24:08;;;;;;;4.15;1.50;;;;;;;14.90;44.95;99230.06;6210984;23;20000;-89
2023/11/10 12:26:42;;;;;;;2.85;1.90;;;;;;;14.97;45.50;99219.63;6164137;23;20439;-89
2023/11/10 12:29:15;;;;;;;4.20;2.42;;;;;;;14.88;45.98;99192.44;6188744;23;20004;-88
2023/11/10 12:31:42;;;;;;;3.08;2.20;;;;;;;15.00;45.83;99204.66;6168480;23;20009;-91
2023/11/10 12:34:10;;;;;;;10.23;3.03;;;;;;;15.05;45.27;99204.56;6192706;23;20024;-94
2023/11/10 12:36:37;;;;;;;3.40;1.80;;;;;;;15.10;45.40;99199.03;6192860;23;20000;-91
2023/11/10 12:39:29;;;;;;;3.03;2.15;;;;;;;15.16;45.35;99204.03;6181139;23;20027;-95